createdAt,value
2022-10-16T00:01:14.331Z,100502.91
2022-10-16T00:03:42.437Z,100517.06
2022-10-16T00:06:10.082Z,100524.03
2022-10-16T00:08:37.370Z,100520.56
2022-10-16T00:11:05.157Z,100528.75
2022-10-16T00:13:33.214Z,100525.47
2022-10-16T00:16:01.597Z,100530.72
2022-10-16T00:18:29.201Z,100531.50
2022-10-16T00:23:27.478Z,100532.31
2022-10-16T00:25:58.988Z,100532.28
2022-10-16T00:28:25.889Z,100534.91
2022-10-16T00:30:52.735Z,100535.66
2022-10-16T00:33:19.078Z,100533.28
2022-10-16T00:35:45.464Z,100534.13
2022-10-16T00:38:12.002Z,100545.06
2022-10-16T00:40:38.750Z,100548.75
2022-10-16T00:43:14.086Z,100542.63
2022-10-16T00:45:40.775Z,100545.19
2022-10-16T00:48:14.571Z,100557.44
2022-10-16T00:50:44.196Z,100554.88
2022-10-16T00:53:11.606Z,100548.63
2022-10-16T00:55:41.659Z,100558.16
2022-10-16T00:58:09.216Z,100557.44
2022-10-16T01:00:35.557Z,100547.03
2022-10-16T01:03:04.145Z,100558.31
2022-10-16T01:05:39.414Z,100554.22
2022-10-16T01:08:14.902Z,100561.31
2022-10-16T01:10:54.198Z,100556.13
2022-10-16T01:13:38.176Z,100561.44
2022-10-16T01:16:11.066Z,100555.47
2022-10-16T01:18:45.057Z,100558.91
2022-10-16T01:21:20.476Z,100564.63
2022-10-16T01:24:07.556Z,100562.84
2022-10-16T01:27:10.829Z,100562.03
2022-10-16T01:29:55.805Z,100560.41
2022-10-16T01:32:40.004Z,100563.13
2022-10-16T01:35:12.609Z,100567.53
2022-10-16T01:37:51.354Z,100563.22
2022-10-16T01:40:20.574Z,100573.63
2022-10-16T01:42:56.315Z,100572.00
2022-10-16T01:45:23.035Z,100570.16
2022-10-16T01:47:51.608Z,100570.16
2022-10-16T01:50:20.459Z,100573.69
2022-10-16T01:52:50.379Z,100565.84
2022-10-16T01:55:21.428Z,100573.09
2022-10-16T01:57:51.057Z,100572.38
2022-10-16T02:00:19.939Z,100573.25
2022-10-16T02:02:50.726Z,100571.44
2022-10-16T02:05:25.376Z,100572.53
2022-10-16T02:07:51.751Z,100570.84
2022-10-16T02:10:19.056Z,100568.97
2022-10-16T02:13:01.174Z,100573.53
2022-10-16T02:15:27.516Z,100582.16
2022-10-16T02:17:53.846Z,100581.44
2022-10-16T02:20:26.020Z,100575.38
2022-10-16T02:22:54.691Z,100572.84
2022-10-16T02:25:27.141Z,100578.84
2022-10-16T02:28:07.499Z,100577.88
2022-10-16T02:30:49.160Z,100569.28
2022-10-16T02:33:17.284Z,100571.00
2022-10-16T02:35:47.199Z,100575.47
2022-10-16T02:38:15.888Z,100571.97
2022-10-16T02:40:43.506Z,100573.09
2022-10-16T02:43:10.589Z,100576.63
2022-10-16T02:45:37.286Z,100580.13
2022-10-16T02:48:03.804Z,100571.56
2022-10-16T02:50:30.147Z,100574.97
2022-10-16T02:52:56.435Z,100571.56
2022-10-16T02:55:22.727Z,100562.06
2022-10-16T02:57:49.033Z,100579.44
2022-10-16T03:00:17.213Z,100577.75
2022-10-16T03:02:44.245Z,100576.25
2022-10-16T03:05:11.592Z,100576.41
2022-10-16T03:07:37.905Z,100579.94
2022-10-16T03:10:04.547Z,100584.41
2022-10-16T03:12:31.379Z,100576.66
2022-10-16T03:14:58.304Z,100579.56
2022-10-16T03:17:26.124Z,100580.28
2022-10-16T03:19:53.129Z,100567.38
2022-10-16T03:22:19.430Z,100571.63
2022-10-16T03:24:45.770Z,100571.59
2022-10-16T03:27:12.079Z,100568.22
2022-10-16T03:29:38.389Z,100568.44
2022-10-16T03:32:04.754Z,100580.81
2022-10-16T03:34:31.131Z,100573.19
2022-10-16T03:36:57.433Z,100578.31
2022-10-16T03:39:23.995Z,100571.28
2022-10-16T03:41:50.276Z,100573.91
2022-10-16T03:44:16.940Z,100573.09
2022-10-16T03:46:43.317Z,100579.28
2022-10-16T03:49:10.006Z,100581.00
2022-10-16T03:51:36.565Z,100582.66
2022-10-16T03:54:02.971Z,100576.72
2022-10-16T03:56:29.259Z,100583.63
2022-10-16T03:58:55.529Z,100584.31
2022-10-16T04:01:21.913Z,100581.81
2022-10-16T04:03:48.214Z,100585.28
2022-10-16T04:06:14.496Z,100585.28
2022-10-16T04:08:43.742Z,100584.34
2022-10-16T04:11:10.042Z,100589.72
2022-10-16T04:13:36.349Z,100593.06
2022-10-16T04:16:03.081Z,100599.13
2022-10-16T04:18:29.908Z,100617.53
2022-10-16T04:20:56.212Z,100625.38
2022-10-16T04:23:23.805Z,100624.63
2022-10-16T04:25:50.132Z,100622.88
2022-10-16T04:28:16.461Z,100631.53
2022-10-16T04:30:42.728Z,100631.53
2022-10-16T04:33:10.790Z,100629.72
2022-10-16T04:35:37.146Z,100634.97
2022-10-16T04:38:03.703Z,100624.69
2022-10-16T04:40:30.213Z,100625.63
2022-10-16T04:42:56.508Z,100623.69
2022-10-16T04:45:22.842Z,100634.94
2022-10-16T04:47:49.120Z,100630.63
2022-10-16T04:50:15.458Z,100642.91
2022-10-16T04:52:41.771Z,100644.88
2022-10-16T04:55:08.548Z,100645.78
2022-10-16T04:57:34.844Z,100651.97
2022-10-16T05:00:01.466Z,100652.06
2022-10-16T05:02:27.834Z,100652.06
2022-10-16T05:04:54.263Z,100652.13
2022-10-16T05:07:20.573Z,100648.66
2022-10-16T05:09:47.081Z,100650.28
2022-10-16T05:12:13.383Z,100653.00
2022-10-16T05:14:39.710Z,100652.19
2022-10-16T05:17:06.021Z,100653.94
2022-10-16T05:19:32.307Z,100667.66
2022-10-16T05:21:58.594Z,100659.91
2022-10-16T05:24:25.030Z,100668.75
2022-10-16T05:26:52.344Z,100668.63
2022-10-16T05:29:18.679Z,100679.38
2022-10-16T05:31:45.032Z,100685.47
2022-10-16T05:34:11.303Z,100685.38
2022-10-16T05:36:37.710Z,100681.06
2022-10-16T05:39:04.406Z,100677.78
2022-10-16T05:41:30.662Z,100686.31
2022-10-16T05:43:56.991Z,100689.94
2022-10-16T05:46:23.300Z,100690.00
2022-10-16T05:48:52.178Z,100690.72
2022-10-16T05:51:18.455Z,100690.81
2022-10-16T05:56:13.298Z,100672.44
2022-10-16T05:58:41.375Z,100676.66
2022-10-16T06:01:12.050Z,100677.50
2022-10-16T06:03:38.651Z,100679.25
2022-10-16T06:06:14.083Z,100701.88
2022-10-16T06:08:41.919Z,100699.22
2022-10-16T06:11:11.740Z,100706.84
2022-10-16T06:13:38.097Z,100696.41
2022-10-16T06:16:04.973Z,100700.53
2022-10-16T06:18:31.658Z,100711.81
2022-10-16T06:20:58.762Z,100717.09
2022-10-16T06:23:25.752Z,100709.19
2022-10-16T06:25:52.394Z,100709.00
2022-10-16T06:28:19.350Z,100701.16
2022-10-16T06:30:46.538Z,100698.47
2022-10-16T06:33:13.472Z,100702.00
2022-10-16T06:35:39.755Z,100714.16
2022-10-16T06:38:06.069Z,100713.41
2022-10-16T06:40:32.358Z,100708.28
2022-10-16T06:42:58.633Z,100706.66
2022-10-16T06:45:24.944Z,100717.91
2022-10-16T06:47:51.248Z,100723.78
2022-10-16T06:50:17.572Z,100732.31
2022-10-16T06:52:43.844Z,100735.59
2022-10-16T06:55:10.146Z,100737.28
2022-10-16T06:57:36.475Z,100732.84
2022-10-16T07:00:04.175Z,100741.53
2022-10-16T07:02:30.582Z,100745.47
2022-10-16T07:04:57.791Z,100752.38
2022-10-16T07:07:25.679Z,100755.75
2022-10-16T07:09:52.000Z,100755.59
2022-10-16T07:12:18.612Z,100761.72
2022-10-16T07:14:44.914Z,100760.63
2022-10-16T07:17:11.204Z,100756.03
2022-10-16T07:19:37.843Z,100750.78
2022-10-16T07:22:04.190Z,100761.88
2022-10-16T07:24:30.511Z,100773.06
2022-10-16T07:26:56.879Z,100764.88
2022-10-16T07:29:23.265Z,100769.00
2022-10-16T07:31:50.637Z,100768.53
2022-10-16T07:34:18.419Z,100779.75
2022-10-16T07:36:44.749Z,100784.09
2022-10-16T07:39:11.074Z,100777.66
2022-10-16T07:41:37.963Z,100784.63
2022-10-16T07:44:04.926Z,100784.41
2022-10-16T07:46:31.779Z,100782.72
2022-10-16T07:48:58.095Z,100789.63
2022-10-16T07:51:25.975Z,100784.56
2022-10-16T07:53:53.674Z,100795.81
2022-10-16T07:56:21.099Z,100807.28
2022-10-16T07:58:47.414Z,100806.19
2022-10-16T08:01:15.813Z,100805.84
2022-10-16T08:03:46.180Z,100798.72
2022-10-16T08:06:12.569Z,100791.72
2022-10-16T08:08:39.119Z,100798.75
2022-10-16T08:11:05.740Z,100806.69
2022-10-16T08:13:32.669Z,100813.59
2022-10-16T08:15:59.223Z,100801.38
2022-10-16T08:18:25.758Z,100818.75
2022-10-16T08:20:59.699Z,100813.50
2022-10-16T08:23:26.940Z,100819.31
2022-10-16T08:25:54.762Z,100816.56
2022-10-16T08:28:21.711Z,100821.41
2022-10-16T08:30:48.112Z,100819.34
2022-10-16T08:33:14.957Z,100812.09
2022-10-16T08:35:41.272Z,100816.13
2022-10-16T08:38:07.751Z,100811.19
2022-10-16T08:40:36.701Z,100809.09
2022-10-16T08:43:23.993Z,100820.31
2022-10-16T08:46:08.540Z,100815.47
2022-10-16T08:49:12.264Z,100823.09
2022-10-16T08:51:41.860Z,100816.53
2022-10-16T08:54:35.522Z,100820.75
2022-10-16T08:57:21.533Z,100818.56
2022-10-16T08:59:50.818Z,100812.25
2022-10-16T09:02:28.057Z,100827.69
2022-10-16T09:04:56.774Z,100833.28
2022-10-16T09:07:36.725Z,100833.97
2022-10-16T09:10:38.154Z,100829.31
2022-10-16T09:13:20.172Z,100844.75
2022-10-16T09:15:59.648Z,100833.75
2022-10-16T09:18:54.432Z,100834.91
2022-10-16T09:21:26.504Z,100835.72
2022-10-16T09:23:52.849Z,100830.22
2022-10-16T09:26:20.528Z,100839.00
2022-10-16T09:28:46.987Z,100836.22
2022-10-16T09:31:18.345Z,100840.75
2022-10-16T09:33:48.381Z,100844.16
2022-10-16T09:36:15.378Z,100854.63
2022-10-16T09:38:41.717Z,100846.97
2022-10-16T09:41:23.201Z,100843.38
2022-10-16T09:43:52.942Z,100848.66
2022-10-16T09:46:25.146Z,100857.81
2022-10-16T09:48:54.895Z,100845.81
2022-10-16T09:51:28.590Z,100850.78
2022-10-16T09:54:00.938Z,100841.28
2022-10-16T09:56:30.953Z,100846.09
2022-10-16T09:59:00.171Z,100852.97
2022-10-16T10:01:37.648Z,100860.66
2022-10-16T10:04:05.024Z,100861.06
2022-10-16T10:06:39.114Z,100875.78
2022-10-16T10:09:18.465Z,100876.84
2022-10-16T10:11:48.827Z,100876.47
2022-10-16T10:14:34.618Z,100873.59
2022-10-16T10:17:06.729Z,100878.78
2022-10-16T10:19:45.608Z,100886.25
2022-10-16T10:22:28.238Z,100885.28
2022-10-16T10:25:28.367Z,100887.59
2022-10-16T10:28:20.046Z,100878.25
2022-10-16T10:30:55.403Z,100878.78
2022-10-16T10:33:29.750Z,100890.28
2022-10-16T10:36:08.002Z,100893.34
2022-10-16T10:38:46.353Z,100900.34
2022-10-16T10:41:29.135Z,100891.34
2022-10-16T10:44:40.734Z,100916.53
2022-10-16T10:47:39.999Z,100905.28
2022-10-16T10:50:14.847Z,100902.28
2022-10-16T10:52:53.720Z,100901.97
2022-10-16T10:55:43.868Z,100898.03
2022-10-16T10:58:21.609Z,100903.03
2022-10-16T11:01:14.259Z,100903.56
2022-10-16T11:04:27.469Z,100909.25
2022-10-16T11:07:00.429Z,100906.28
2022-10-16T11:09:32.843Z,100917.03
2022-10-16T11:12:06.440Z,100896.34
2022-10-16T11:14:40.130Z,100907.94
2022-10-16T11:17:17.979Z,100903.84
2022-10-16T11:19:55.883Z,100909.56
2022-10-16T11:22:28.395Z,100914.22
2022-10-16T11:25:09.553Z,100910.78
2022-10-16T11:27:50.834Z,100913.41
2022-10-16T11:30:22.764Z,100925.84
2022-10-16T11:32:57.705Z,100925.38
2022-10-16T11:35:43.978Z,100924.44
2022-10-16T11:38:39.880Z,100925.88
2022-10-16T11:41:29.080Z,100926.63
2022-10-16T11:44:07.929Z,100923.84
2022-10-16T11:46:47.860Z,100933.47
2022-10-16T11:49:27.468Z,100941.50
2022-10-16T11:54:49.288Z,100955.94
2022-10-16T11:57:24.343Z,100953.63
2022-10-16T12:00:10.483Z,100952.06
2022-10-16T12:02:50.535Z,100965.44
2022-10-16T12:05:32.214Z,100972.97
2022-10-16T12:08:12.477Z,100964.75
2022-10-16T12:10:41.424Z,100976.38
2022-10-16T12:13:32.219Z,100979.66
2022-10-16T12:16:13.899Z,100982.72
2022-10-16T12:18:45.478Z,100980.16
2022-10-16T12:21:16.606Z,100983.47
2022-10-16T12:23:52.890Z,100994.75
2022-10-16T12:26:30.976Z,100994.53
2022-10-16T12:29:18.871Z,101008.25
2022-10-16T12:31:57.832Z,101000.84
2022-10-16T12:34:34.448Z,101023.28
2022-10-16T12:37:25.052Z,101011.13
2022-10-16T12:39:52.996Z,101010.03
2022-10-16T12:42:28.738Z,101018.53
2022-10-16T12:44:55.816Z,101013.47
2022-10-16T12:47:31.278Z,101016.84
2022-10-16T12:49:58.744Z,101026.84
2022-10-16T12:52:40.624Z,101022.38
2022-10-16T12:55:17.724Z,101032.81
2022-10-16T12:58:38.102Z,101040.84
2022-10-16T13:01:19.830Z,101037.47
2022-10-16T13:04:04.677Z,101056.38
2022-10-16T13:06:46.715Z,101047.19
2022-10-16T13:10:01.204Z,101068.59
2022-10-16T13:13:03.232Z,101057.59
2022-10-16T13:15:59.632Z,101070.00
2022-10-16T13:18:35.006Z,101062.00
2022-10-16T13:21:04.374Z,101070.97
2022-10-16T13:23:44.864Z,101077.16
2022-10-16T13:26:26.323Z,101080.38
2022-10-16T13:28:52.812Z,101082.44
2022-10-16T13:31:23.685Z,101096.56
2022-10-16T13:33:55.831Z,101084.72
2022-10-16T13:36:24.821Z,101101.81
2022-10-16T13:39:07.385Z,101106.28
2022-10-16T13:41:33.753Z,101110.66
2022-10-16T13:44:00.095Z,101112.56
2022-10-16T13:46:27.269Z,101113.25
2022-10-16T13:49:14.256Z,101117.09
2022-10-16T13:51:40.592Z,101118.47
2022-10-16T13:54:10.649Z,101123.13
2022-10-16T13:56:36.915Z,101118.19
2022-10-16T13:59:05.908Z,101130.31
2022-10-16T14:01:33.661Z,101141.72
2022-10-16T14:04:08.979Z,101139.31
2022-10-16T14:06:37.629Z,101140.97
2022-10-16T14:09:08.851Z,101135.72
2022-10-16T14:11:45.768Z,101145.63
2022-10-16T14:14:13.563Z,101142.19
2022-10-16T14:16:42.415Z,101147.09
2022-10-16T14:19:24.860Z,101155.81
2022-10-16T14:21:52.732Z,101151.50
2022-10-16T14:24:34.197Z,101151.75
2022-10-16T14:27:01.874Z,101157.97
2022-10-16T14:29:32.339Z,101157.97
2022-10-16T14:32:06.430Z,101162.38
2022-10-16T14:34:35.833Z,101171.75
2022-10-16T14:39:36.595Z,101178.53
2022-10-16T14:42:03.127Z,101186.47
2022-10-16T14:44:33.714Z,101189.31
2022-10-16T14:47:09.991Z,101190.22
2022-10-16T14:49:36.291Z,101181.75
2022-10-16T14:52:02.959Z,101190.47
2022-10-16T14:54:29.277Z,101193.13
2022-10-16T14:56:57.930Z,101181.94
2022-10-16T14:59:41.624Z,101191.53
2022-10-16T15:02:26.433Z,101198.72
2022-10-16T15:04:52.764Z,101198.47
2022-10-16T15:07:19.171Z,101207.22
2022-10-16T15:09:49.023Z,101210.13
2022-10-16T15:12:15.890Z,101208.63
2022-10-16T15:14:42.214Z,101217.31
2022-10-16T15:17:11.409Z,101217.53
2022-10-16T15:19:37.788Z,101223.00
2022-10-16T15:22:04.141Z,101220.94
2022-10-16T15:24:30.527Z,101224.50
2022-10-16T15:26:56.901Z,101226.94
2022-10-16T15:29:23.216Z,101230.66
2022-10-16T15:31:49.556Z,101230.88
2022-10-16T15:34:15.979Z,101232.88
2022-10-16T15:36:42.327Z,101237.28
2022-10-16T15:39:16.924Z,101234.00
2022-10-16T15:41:44.363Z,101237.81
2022-10-16T15:44:10.695Z,101246.66
2022-10-16T15:46:38.082Z,101252.00
2022-10-16T15:49:04.480Z,101249.31
2022-10-16T15:51:30.947Z,101261.28
2022-10-16T15:53:57.948Z,101255.19
2022-10-16T15:56:26.226Z,101254.25
2022-10-16T15:58:54.664Z,101255.97
2022-10-16T16:01:22.413Z,101263.16
2022-10-16T16:03:48.880Z,101271.97
2022-10-16T16:06:16.141Z,101273.03
2022-10-16T16:08:42.439Z,101282.03
2022-10-16T16:11:11.792Z,101282.31
2022-10-16T16:13:39.006Z,101282.72
2022-10-16T16:16:11.055Z,101295.25
2022-10-16T16:18:37.680Z,101294.41
2022-10-16T16:21:04.602Z,101286.72
2022-10-16T16:23:31.438Z,101290.66
2022-10-16T16:26:12.679Z,101295.22
2022-10-16T16:28:40.753Z,101298.28
2022-10-16T16:31:07.453Z,101304.41
2022-10-16T16:33:34.555Z,101310.63
2022-10-16T16:36:03.480Z,101317.03
2022-10-16T16:38:30.409Z,101324.31
2022-10-16T16:40:56.720Z,101332.31
2022-10-16T16:43:27.583Z,101340.38
2022-10-16T16:45:55.127Z,101345.66
2022-10-16T16:48:22.730Z,101343.94
2022-10-16T16:50:49.167Z,101354.63
2022-10-16T16:53:15.568Z,101354.75
2022-10-16T16:55:41.880Z,101346.47
2022-10-16T16:58:08.280Z,101361.34
2022-10-16T17:00:34.573Z,101368.44
2022-10-16T17:03:01.083Z,101369.41
2022-10-16T17:05:27.359Z,101382.53
2022-10-16T17:07:53.713Z,101382.63
2022-10-16T17:10:20.068Z,101382.84
2022-10-16T17:12:46.425Z,101393.47
2022-10-16T17:15:12.982Z,101391.13
2022-10-16T17:17:39.546Z,101401.63
2022-10-16T17:20:06.252Z,101407.81
2022-10-16T17:22:32.533Z,101402.63
2022-10-16T17:24:58.844Z,101405.31
2022-10-16T17:27:25.186Z,101412.28
2022-10-16T17:29:52.262Z,101411.47
2022-10-16T17:32:20.543Z,101420.28
2022-10-16T17:34:46.822Z,101431.75
2022-10-16T17:37:15.729Z,101424.78
2022-10-16T17:39:44.387Z,101431.81
2022-10-16T17:42:10.810Z,101437.13
2022-10-16T17:44:37.127Z,101441.47
2022-10-16T17:47:03.417Z,101454.63
2022-10-16T17:49:29.737Z,101452.00
2022-10-16T17:51:56.080Z,101453.81
2022-10-16T17:54:22.460Z,101462.53
2022-10-16T17:56:49.408Z,101469.63
2022-10-16T17:59:16.058Z,101470.53
2022-10-16T18:01:45.258Z,101475.78
2022-10-16T18:04:14.302Z,101487.31
2022-10-16T18:06:42.683Z,101488.19
2022-10-16T18:09:11.595Z,101490.88
2022-10-16T18:11:38.400Z,101481.41
2022-10-16T18:14:05.056Z,101484.94
2022-10-16T18:16:32.194Z,101479.72
2022-10-16T18:18:59.356Z,101484.13
2022-10-16T18:21:27.351Z,101489.38
2022-10-16T18:23:53.953Z,101490.25
2022-10-16T18:26:21.403Z,101491.97
2022-10-16T18:28:48.419Z,101485.97
2022-10-16T18:31:17.586Z,101489.47
2022-10-16T18:33:50.065Z,101497.28
2022-10-16T18:36:19.616Z,101517.34
2022-10-16T18:38:46.256Z,101518.22
2022-10-16T18:41:12.608Z,101513.88
2022-10-16T18:43:39.297Z,101521.69
2022-10-16T18:46:12.204Z,101518.25
2022-10-16T18:48:39.376Z,101529.56
2022-10-16T18:51:13.110Z,101536.44
2022-10-16T18:53:41.967Z,101535.59
2022-10-16T18:56:08.767Z,101534.78
2022-10-16T18:58:36.902Z,101534.75
2022-10-16T19:01:05.768Z,101542.59
2022-10-16T19:03:32.813Z,101539.19
2022-10-16T19:06:03.374Z,101536.53
2022-10-16T19:08:32.141Z,101532.19
2022-10-16T19:11:13.750Z,101525.28
2022-10-16T19:13:40.116Z,101524.47
2022-10-16T19:16:26.777Z,101533.16
2022-10-16T19:18:55.839Z,101539.28
2022-10-16T19:21:22.795Z,101541.91
2022-10-16T19:23:52.689Z,101540.31
2022-10-16T19:26:20.416Z,101553.44
2022-10-16T19:28:47.140Z,101557.00
2022-10-16T19:31:19.273Z,101553.47
2022-10-16T19:33:46.170Z,101568.31
2022-10-16T19:36:18.493Z,101569.16
2022-10-16T19:38:46.465Z,101568.31
2022-10-16T19:41:15.147Z,101564.88
2022-10-16T19:43:41.932Z,101572.69
2022-10-16T19:46:10.987Z,101575.28
2022-10-16T19:48:37.677Z,101586.56
2022-10-16T19:51:04.743Z,101591.72
2022-10-16T19:53:31.513Z,101595.19
2022-10-16T19:55:58.256Z,101590.88
2022-10-16T19:58:25.153Z,101587.38
2022-10-16T20:00:51.727Z,101577.84
2022-10-16T20:03:18.134Z,101589.16
2022-10-16T20:05:55.406Z,101593.50
2022-10-16T20:08:22.856Z,101596.13
2022-10-16T20:10:54.627Z,101601.31
2022-10-16T20:13:21.771Z,101596.97
2022-10-16T20:15:49.573Z,101595.22
2022-10-16T20:18:16.570Z,101600.50
2022-10-16T20:20:49.409Z,101608.31
2022-10-16T20:23:15.813Z,101602.22
2022-10-16T20:25:43.138Z,101596.13
2022-10-16T20:28:12.682Z,101596.13
2022-10-16T20:30:42.059Z,101598.72
2022-10-16T20:33:09.182Z,101602.19
2022-10-16T20:35:36.896Z,101610.88
2022-10-16T20:38:03.576Z,101609.13
2022-10-16T20:40:30.140Z,101613.50
2022-10-16T20:42:56.437Z,101615.25
2022-10-16T20:45:22.739Z,101629.16
2022-10-16T20:47:49.008Z,101628.28
2022-10-16T20:50:16.203Z,101624.78
2022-10-16T20:52:42.507Z,101618.72
2022-10-16T20:55:09.536Z,101619.53
2022-10-16T20:57:36.229Z,101615.25
2022-10-16T21:00:04.335Z,101619.59
2022-10-16T21:02:30.805Z,101625.69
2022-10-16T21:04:57.154Z,101622.22
2022-10-16T21:07:23.435Z,101626.56
2022-10-16T21:09:49.709Z,101624.81
2022-10-16T21:12:16.010Z,101630.03
2022-10-16T21:14:51.053Z,101630.91
2022-10-16T21:17:22.888Z,101630.03
2022-10-16T21:19:49.367Z,101630.91
2022-10-16T21:22:15.708Z,101653.47
2022-10-16T21:24:41.972Z,101652.59
2022-10-16T21:27:08.315Z,101656.94
2022-10-16T21:29:35.191Z,101664.75
2022-10-16T21:32:01.771Z,101660.44
2022-10-16T21:34:28.044Z,101669.09
2022-10-16T21:36:54.427Z,101675.19
2022-10-16T21:39:21.507Z,101676.03
2022-10-16T21:41:49.939Z,101673.41
2022-10-16T21:44:17.628Z,101666.47
2022-10-16T21:46:44.662Z,101671.69
2022-10-16T21:49:16.533Z,101669.94
2022-10-16T21:51:45.896Z,101669.94
2022-10-16T21:54:17.617Z,101672.56
2022-10-16T21:56:43.952Z,101670.84
2022-10-16T21:59:12.643Z,101666.47
2022-10-16T22:01:39.924Z,101656.94
2022-10-16T22:04:06.372Z,101661.28
2022-10-16T22:06:32.717Z,101669.06
2022-10-16T22:09:00.801Z,101673.41
2022-10-16T22:11:36.810Z,101675.16
2022-10-16T22:14:05.450Z,101672.56
2022-10-16T22:16:32.631Z,101682.97
2022-10-16T22:18:59.703Z,101680.38
2022-10-16T22:21:27.981Z,101676.06
2022-10-16T22:23:54.458Z,101669.09
2022-10-16T22:26:21.086Z,101668.25
2022-10-16T22:28:47.845Z,101671.69
2022-10-16T22:31:14.673Z,101675.16
2022-10-16T22:33:41.730Z,101670.81
2022-10-16T22:36:10.674Z,101666.50
2022-10-16T22:38:37.451Z,101676.91
2022-10-16T22:41:09.548Z,101661.28
2022-10-16T22:43:38.087Z,101662.16
2022-10-16T22:46:07.525Z,101640.44
2022-10-16T22:48:34.919Z,101643.91
2022-10-16T22:51:02.183Z,101643.94
2022-10-16T22:53:28.536Z,101643.03
2022-10-16T22:55:54.927Z,101634.34
2022-10-16T22:58:21.457Z,101641.31
2022-10-16T23:00:48.048Z,101654.31
2022-10-16T23:03:14.456Z,101651.72
2022-10-16T23:05:42.780Z,101661.28
2022-10-16T23:08:10.469Z,101677.75
2022-10-16T23:10:41.992Z,101670.84
2022-10-16T23:13:08.447Z,101665.63
2022-10-16T23:15:34.773Z,101653.44
2022-10-16T23:18:01.103Z,101649.13
2022-10-16T23:20:27.415Z,101651.72
2022-10-16T23:22:53.699Z,101649.97
2022-10-16T23:25:19.972Z,101639.59
2022-10-16T23:27:46.494Z,101644.81
2022-10-16T23:30:12.810Z,101633.50
2022-10-16T23:32:40.741Z,101632.63
2022-10-16T23:35:07.577Z,101629.16
2022-10-16T23:37:33.869Z,101628.28
2022-10-16T23:40:00.235Z,101627.41
2022-10-16T23:42:26.862Z,101631.72
2022-10-16T23:44:53.377Z,101636.91
2022-10-16T23:47:19.638Z,101630.00
2022-10-16T23:49:45.905Z,101617.84
2022-10-16T23:52:12.216Z,101618.66
2022-10-16T23:54:38.492Z,101614.38
2022-10-16T23:57:04.861Z,101603.91
2022-10-16T23:59:31.153Z,101594.34
